createdAt,value
2023-02-06T00:00:04.913Z,8.18
2023-02-06T00:02:32.310Z,9.68
2023-02-06T00:04:59.592Z,8.02
2023-02-06T00:07:27.522Z,8.25
2023-02-06T00:09:54.798Z,7.68
2023-02-06T00:12:22.022Z,7.75
2023-02-06T00:14:49.259Z,9.70
2023-02-06T00:17:16.533Z,13.50
2023-02-06T00:19:44.624Z,12.32
2023-02-06T00:22:13.509Z,12.63
2023-02-06T00:24:41.016Z,9.90
2023-02-06T00:27:08.382Z,13.38
2023-02-06T00:29:35.690Z,11.57
2023-02-06T00:32:02.870Z,12.77
2023-02-06T00:34:30.064Z,13.35
2023-02-06T00:36:57.408Z,11.38
2023-02-06T00:39:24.536Z,12.32
2023-02-06T00:41:51.702Z,13.05
2023-02-06T00:44:19.037Z,14.27
2023-02-06T00:46:46.263Z,12.45
2023-02-06T00:49:13.476Z,16.20
2023-02-06T00:51:40.799Z,15.50
2023-02-06T00:54:08.139Z,16.02
2023-02-06T00:56:35.445Z,15.30
2023-02-06T00:59:02.587Z,14.68
2023-02-06T01:01:29.754Z,20.42
2023-02-06T01:03:56.903Z,14.65
2023-02-06T01:06:24.072Z,16.55
2023-02-06T01:08:51.285Z,15.52
2023-02-06T01:11:22.301Z,16.58
2023-02-06T01:13:49.556Z,14.15
2023-02-06T01:16:17.460Z,15.52
2023-02-06T01:18:44.698Z,15.50
2023-02-06T01:21:12.454Z,15.98
2023-02-06T01:23:39.603Z,16.40
2023-02-06T01:26:11.670Z,14.68
2023-02-06T01:28:39.371Z,15.23
2023-02-06T01:31:13.113Z,16.77
2023-02-06T01:33:40.793Z,14.95
2023-02-06T01:36:08.154Z,16.55
2023-02-06T01:38:35.295Z,17.08
2023-02-06T01:41:02.529Z,13.27
2023-02-06T01:43:30.436Z,13.23
2023-02-06T01:45:57.779Z,13.77
2023-02-06T01:48:31.104Z,13.82
2023-02-06T01:50:58.261Z,13.90
2023-02-06T01:53:25.487Z,17.65
2023-02-06T01:55:52.661Z,14.43
2023-02-06T01:58:30.275Z,16.10
2023-02-06T02:00:57.790Z,16.63
2023-02-06T02:03:24.939Z,16.63
2023-02-06T02:05:52.098Z,14.20
2023-02-06T02:08:20.274Z,20.17
2023-02-06T02:10:47.600Z,17.23
2023-02-06T02:13:14.765Z,16.33
2023-02-06T02:15:47.734Z,20.40
2023-02-06T02:18:17.780Z,15.13
2023-02-06T02:21:14.259Z,17.77
2023-02-06T02:23:41.383Z,13.70
2023-02-06T02:26:27.755Z,14.98
2023-02-06T02:29:06.933Z,13.23
2023-02-06T02:31:43.951Z,13.68
2023-02-06T02:34:14.137Z,13.25
2023-02-06T02:36:44.116Z,11.77
2023-02-06T02:39:29.958Z,11.55
2023-02-06T02:42:10.726Z,13.18
2023-02-06T02:44:57.436Z,10.95
2023-02-06T02:47:25.763Z,12.35
2023-02-06T02:49:52.932Z,14.37
2023-02-06T02:52:20.106Z,14.07
2023-02-06T02:54:47.293Z,10.98
2023-02-06T02:57:15.577Z,8.55
2023-02-06T02:59:46.298Z,8.65
2023-02-06T03:02:16.547Z,7.30
2023-02-06T03:04:52.149Z,8.35
2023-02-06T03:07:28.562Z,5.13
2023-02-06T03:10:04.997Z,8.43
2023-02-06T03:12:47.271Z,6.20
2023-02-06T03:15:19.074Z,7.07
2023-02-06T03:17:48.001Z,7.65
2023-02-06T03:20:15.143Z,7.57
2023-02-06T03:22:42.302Z,7.05
2023-02-06T03:25:11.136Z,6.05
2023-02-06T03:27:38.791Z,12.05
2023-02-06T03:30:06.125Z,6.70
2023-02-06T03:32:33.512Z,9.80
2023-02-06T03:35:01.637Z,7.30
2023-02-06T03:37:28.915Z,6.88
2023-02-06T03:39:56.494Z,7.53
2023-02-06T03:42:23.654Z,6.45
2023-02-06T03:44:52.701Z,8.75
2023-02-06T03:47:19.886Z,6.50
2023-02-06T03:49:47.013Z,8.25
2023-02-06T03:52:15.732Z,5.80
2023-02-06T03:54:44.143Z,7.43
2023-02-06T03:57:11.826Z,8.18
2023-02-06T03:59:38.957Z,7.97
2023-02-06T04:02:06.244Z,6.38
2023-02-06T04:04:35.761Z,8.13
2023-02-06T04:07:03.999Z,8.32
2023-02-06T04:09:31.324Z,7.93
2023-02-06T04:11:58.473Z,9.05
2023-02-06T04:14:25.637Z,6.38
2023-02-06T04:16:52.907Z,6.13
2023-02-06T04:19:20.063Z,7.40
2023-02-06T04:21:47.226Z,6.88
2023-02-06T04:24:14.397Z,7.68
2023-02-06T04:26:41.547Z,7.65
2023-02-06T04:29:08.736Z,8.73
2023-02-06T04:31:35.938Z,12.13
2023-02-06T04:34:03.205Z,11.00
2023-02-06T04:36:30.372Z,11.00
2023-02-06T04:38:57.526Z,11.88
2023-02-06T04:41:24.681Z,9.75
2023-02-06T04:43:51.811Z,11.40
2023-02-06T04:46:19.014Z,15.75
2023-02-06T04:48:46.190Z,10.88
2023-02-06T04:51:13.378Z,10.45
2023-02-06T04:53:40.527Z,11.63
2023-02-06T04:56:08.631Z,12.05
2023-02-06T04:58:35.795Z,9.93
2023-02-06T05:01:03.000Z,9.13
2023-02-06T05:03:30.452Z,8.65
2023-02-06T05:05:59.737Z,8.93
2023-02-06T05:08:27.068Z,10.07
2023-02-06T05:10:55.122Z,7.20
2023-02-06T05:13:22.322Z,8.27
2023-02-06T05:15:49.496Z,8.40
2023-02-06T05:18:16.711Z,8.48
2023-02-06T05:20:44.113Z,8.32
2023-02-06T05:23:11.339Z,7.40
2023-02-06T05:25:39.482Z,9.05
2023-02-06T05:28:08.382Z,9.60
2023-02-06T05:30:35.756Z,8.23
2023-02-06T05:33:02.941Z,6.78
2023-02-06T05:35:30.123Z,9.48
2023-02-06T05:37:57.999Z,7.63
2023-02-06T05:40:25.409Z,8.60
2023-02-06T05:42:52.719Z,8.82
2023-02-06T05:45:19.930Z,9.20
2023-02-06T05:47:47.398Z,7.32
2023-02-06T05:50:14.752Z,7.03
2023-02-06T05:52:42.048Z,8.65
2023-02-06T05:55:09.402Z,9.80
2023-02-06T05:57:36.609Z,7.18
2023-02-06T06:00:04.613Z,8.88
2023-02-06T06:02:31.868Z,9.15
2023-02-06T06:04:59.288Z,7.82
2023-02-06T06:07:26.569Z,10.10
2023-02-06T06:09:53.870Z,7.47
2023-02-06T06:12:21.176Z,7.57
2023-02-06T06:14:48.464Z,7.63
2023-02-06T06:17:16.223Z,7.30
2023-02-06T06:19:43.494Z,7.50
2023-02-06T06:22:11.576Z,7.03
2023-02-06T06:24:38.908Z,7.65
2023-02-06T06:27:08.287Z,6.10
2023-02-06T06:29:35.685Z,6.18
2023-02-06T06:32:03.064Z,6.55
2023-02-06T06:34:30.244Z,6.13
2023-02-06T06:36:57.469Z,7.05
2023-02-06T06:39:24.697Z,6.75
2023-02-06T06:41:51.846Z,7.20
2023-02-06T06:44:18.988Z,6.78
2023-02-06T06:46:46.136Z,7.22
2023-02-06T06:49:13.290Z,8.70
2023-02-06T06:51:40.480Z,8.13
2023-02-06T06:54:07.967Z,8.13
2023-02-06T06:56:35.106Z,7.03
2023-02-06T06:59:02.254Z,6.22
2023-02-06T07:01:29.396Z,7.32
2023-02-06T07:03:56.547Z,6.13
2023-02-06T07:06:23.915Z,7.72
2023-02-06T07:08:51.211Z,8.30
2023-02-06T07:11:18.642Z,7.85
2023-02-06T07:13:46.813Z,7.80
2023-02-06T07:16:14.144Z,9.10
2023-02-06T07:18:42.954Z,6.35
2023-02-06T07:21:10.395Z,7.15
2023-02-06T07:23:38.078Z,7.30
2023-02-06T07:26:05.307Z,3.85
2023-02-06T07:28:32.606Z,5.30
2023-02-06T07:31:03.278Z,3.85
2023-02-06T07:33:30.581Z,5.38
2023-02-06T07:35:58.017Z,3.22
2023-02-06T07:38:25.294Z,2.95
2023-02-06T07:40:52.458Z,3.70
2023-02-06T07:43:19.619Z,3.40
2023-02-06T07:45:46.832Z,4.72
2023-02-06T07:48:14.047Z,3.83
2023-02-06T07:50:41.284Z,5.82
2023-02-06T07:53:08.453Z,3.53
2023-02-06T07:55:39.157Z,4.85
2023-02-06T07:58:06.472Z,5.18
2023-02-06T08:00:33.662Z,4.38
2023-02-06T08:03:00.917Z,3.40
2023-02-06T08:05:28.148Z,5.00
2023-02-06T08:07:55.277Z,5.78
2023-02-06T08:10:22.546Z,4.55
2023-02-06T08:12:49.786Z,5.95
2023-02-06T08:15:17.204Z,3.83
2023-02-06T08:17:44.512Z,4.70
2023-02-06T08:20:12.174Z,5.40
2023-02-06T08:22:39.400Z,6.60
2023-02-06T08:25:06.842Z,10.37
2023-02-06T08:27:34.030Z,7.35
2023-02-06T08:30:01.278Z,8.47
2023-02-06T08:32:32.465Z,7.43
2023-02-06T08:34:59.686Z,8.98
2023-02-06T08:37:26.833Z,12.02
2023-02-06T08:39:54.161Z,6.35
2023-02-06T08:42:21.478Z,5.47
2023-02-06T08:44:48.881Z,8.95
2023-02-06T08:47:16.872Z,9.43
2023-02-06T08:49:44.169Z,5.53
2023-02-06T08:52:11.518Z,4.80
2023-02-06T08:54:39.061Z,4.60
2023-02-06T08:57:06.896Z,5.13
2023-02-06T08:59:34.984Z,4.35
2023-02-06T09:02:02.292Z,3.92
2023-02-06T09:04:32.575Z,4.47
2023-02-06T09:06:59.854Z,3.75
2023-02-06T09:09:27.201Z,4.95
2023-02-06T09:11:55.888Z,4.55
2023-02-06T09:14:23.176Z,4.13
2023-02-06T09:16:50.502Z,4.55
2023-02-06T09:19:17.640Z,3.10
2023-02-06T09:21:44.813Z,4.95
2023-02-06T09:24:12.077Z,4.43
2023-02-06T09:26:53.434Z,3.88
2023-02-06T09:29:24.581Z,8.05
2023-02-06T09:31:51.722Z,5.18
2023-02-06T09:34:18.887Z,3.70
2023-02-06T09:36:46.167Z,5.53
2023-02-06T09:39:14.212Z,4.90
2023-02-06T09:41:45.326Z,4.32
2023-02-06T09:44:20.240Z,2.85
2023-02-06T09:46:52.467Z,3.53
2023-02-06T09:49:21.891Z,4.10
2023-02-06T09:51:55.231Z,3.72
2023-02-06T09:54:22.507Z,4.45
2023-02-06T09:57:09.073Z,3.88
2023-02-06T09:59:44.974Z,3.67
2023-02-06T10:02:16.283Z,3.30
2023-02-06T10:04:46.074Z,3.40
2023-02-06T10:07:18.034Z,4.00
2023-02-06T10:09:51.435Z,3.33
2023-02-06T10:12:25.146Z,2.97
2023-02-06T10:14:54.461Z,2.72
2023-02-06T10:17:23.392Z,3.28
2023-02-06T10:19:50.675Z,4.20
2023-02-06T10:22:20.976Z,2.70
2023-02-06T10:25:06.771Z,4.00
2023-02-06T10:27:34.002Z,4.57
2023-02-06T10:30:01.508Z,3.20
2023-02-06T10:32:47.506Z,4.07
2023-02-06T10:35:20.711Z,5.00
2023-02-06T10:37:48.479Z,2.72
2023-02-06T10:40:21.960Z,5.25
2023-02-06T10:42:54.690Z,2.83
2023-02-06T10:45:27.990Z,3.30
2023-02-06T10:47:56.859Z,5.13
2023-02-06T10:50:27.136Z,3.00
2023-02-06T10:52:54.407Z,2.63
2023-02-06T10:55:23.700Z,4.40
2023-02-06T10:57:51.576Z,2.22
2023-02-06T11:00:24.182Z,2.60
2023-02-06T11:03:06.602Z,2.25
2023-02-06T11:05:34.370Z,2.53
2023-02-06T11:08:14.054Z,6.55
2023-02-06T11:10:41.319Z,2.40
2023-02-06T11:13:35.036Z,2.75
2023-02-06T11:16:03.525Z,3.77
2023-02-06T11:18:37.910Z,3.85
2023-02-06T11:21:05.375Z,3.17
2023-02-06T11:23:34.679Z,3.53
2023-02-06T11:26:17.879Z,3.70
2023-02-06T11:28:52.382Z,3.63
2023-02-06T11:31:20.445Z,3.28
2023-02-06T11:33:50.730Z,4.13
2023-02-06T11:36:27.560Z,3.58
2023-02-06T11:39:27.731Z,2.75
2023-02-06T11:41:58.675Z,3.10
2023-02-06T11:44:26.301Z,4.05
2023-02-06T11:46:53.490Z,4.22
2023-02-06T11:49:29.095Z,2.08
2023-02-06T11:52:00.004Z,2.83
2023-02-06T11:54:28.519Z,4.40
2023-02-06T11:57:03.364Z,3.30
2023-02-06T11:59:33.854Z,2.42
2023-02-06T12:02:01.582Z,3.40
2023-02-06T12:04:31.409Z,3.40
2023-02-06T12:07:21.904Z,2.67
2023-02-06T12:09:49.045Z,4.17
2023-02-06T12:12:16.396Z,2.88
2023-02-06T12:14:46.950Z,2.60
2023-02-06T12:17:25.164Z,3.10
2023-02-06T12:19:56.519Z,3.58
2023-02-06T12:22:24.108Z,3.30
2023-02-06T12:24:52.578Z,3.10
2023-02-06T12:27:27.763Z,3.22
2023-02-06T12:29:58.086Z,5.45
2023-02-06T12:32:27.950Z,2.65
2023-02-06T12:34:56.553Z,3.05
2023-02-06T12:37:32.081Z,2.27
2023-02-06T12:39:59.813Z,2.75
2023-02-06T12:42:40.219Z,4.80
2023-02-06T12:45:26.158Z,3.33
2023-02-06T12:47:55.115Z,2.03
2023-02-06T12:50:22.605Z,2.40
2023-02-06T12:52:51.279Z,2.97
2023-02-06T12:55:18.681Z,4.80
2023-02-06T12:57:45.848Z,1.63
2023-02-06T13:00:28.268Z,3.40
2023-02-06T13:03:06.714Z,3.75
2023-02-06T13:05:41.767Z,4.63
2023-02-06T13:08:13.712Z,3.47
2023-02-06T13:10:40.865Z,10.88
2023-02-06T13:13:08.062Z,5.07
2023-02-06T13:15:39.209Z,2.22
2023-02-06T13:18:42.024Z,4.57
2023-02-06T13:21:15.135Z,6.13
2023-02-06T13:23:52.292Z,7.53
2023-02-06T13:26:19.461Z,10.68
2023-02-06T13:28:47.442Z,9.98
2023-02-06T13:31:22.016Z,5.30
2023-02-06T13:33:51.891Z,5.15
2023-02-06T13:36:26.408Z,5.55
2023-02-06T13:38:57.277Z,15.45
2023-02-06T13:41:31.450Z,5.38
2023-02-06T13:43:59.828Z,4.30
2023-02-06T13:46:47.282Z,4.63
2023-02-06T13:49:33.487Z,3.20
2023-02-06T13:52:00.709Z,5.63
2023-02-06T13:54:32.433Z,5.35
2023-02-06T13:57:29.368Z,3.23
2023-02-06T14:00:08.977Z,56.70
2023-02-06T14:02:39.849Z,19.20
2023-02-06T14:05:08.068Z,31.35
2023-02-06T14:07:44.425Z,15.52
2023-02-06T14:10:26.701Z,8.68
2023-02-06T14:13:01.457Z,4.13
2023-02-06T14:15:35.156Z,4.83
2023-02-06T14:18:02.637Z,8.73
2023-02-06T14:20:32.715Z,5.40
2023-02-06T14:22:59.879Z,16.27
2023-02-06T14:25:45.785Z,17.63
2023-02-06T14:28:36.030Z,10.83
2023-02-06T14:31:03.218Z,7.03
2023-02-06T14:33:56.988Z,4.00
2023-02-06T14:36:28.557Z,2.72
2023-02-06T14:39:09.163Z,3.58
2023-02-06T14:41:39.481Z,4.20
2023-02-06T14:44:13.581Z,5.50
2023-02-06T14:46:42.345Z,4.25
2023-02-06T14:49:12.848Z,5.40
2023-02-06T14:51:41.407Z,5.50
2023-02-06T14:54:27.716Z,3.33
2023-02-06T14:56:58.694Z,6.57
2023-02-06T14:59:25.967Z,4.97
2023-02-06T15:01:53.594Z,4.47
2023-02-06T15:04:26.009Z,5.27
2023-02-06T15:06:57.288Z,3.47
2023-02-06T15:09:38.945Z,4.95
2023-02-06T15:12:19.570Z,13.68
2023-02-06T15:14:59.528Z,16.02
2023-02-06T15:17:26.901Z,9.13
2023-02-06T15:19:54.193Z,7.13
2023-02-06T15:22:23.122Z,4.55
2023-02-06T15:24:53.628Z,4.00
2023-02-06T15:27:20.763Z,5.85
2023-02-06T15:29:51.039Z,3.78
2023-02-06T15:32:23.983Z,5.40
2023-02-06T15:34:51.183Z,5.85
2023-02-06T15:37:26.515Z,8.40
2023-02-06T15:39:53.907Z,4.78
2023-02-06T15:42:21.717Z,6.65
2023-02-06T15:44:49.190Z,4.10
2023-02-06T15:47:16.960Z,5.45
2023-02-06T15:49:44.886Z,4.65
2023-02-06T15:52:12.697Z,4.88
2023-02-06T15:54:43.504Z,3.60
2023-02-06T15:57:27.414Z,4.80
2023-02-06T15:59:56.503Z,6.07
2023-02-06T16:02:25.747Z,4.38
2023-02-06T16:04:53.550Z,5.03
2023-02-06T16:07:22.522Z,6.27
2023-02-06T16:10:03.782Z,4.32
2023-02-06T16:12:35.271Z,3.83
2023-02-06T16:15:03.103Z,3.73
2023-02-06T16:17:41.178Z,5.53
2023-02-06T16:20:27.691Z,9.95
2023-02-06T16:22:57.261Z,12.98
2023-02-06T16:25:28.133Z,21.48
2023-02-06T16:27:55.441Z,22.27
2023-02-06T16:30:25.786Z,14.30
2023-02-06T16:32:55.141Z,10.67
2023-02-06T16:35:22.718Z,9.52
2023-02-06T16:37:52.471Z,9.65
2023-02-06T16:40:19.692Z,9.10
2023-02-06T16:42:47.745Z,6.85
2023-02-06T16:45:18.084Z,6.72
2023-02-06T16:47:45.621Z,6.72
2023-02-06T16:50:12.760Z,6.40
2023-02-06T16:52:41.518Z,5.73
2023-02-06T16:55:13.172Z,6.97
2023-02-06T16:57:43.272Z,3.90
2023-02-06T17:00:33.809Z,6.25
2023-02-06T17:03:00.980Z,5.60
2023-02-06T17:05:28.372Z,6.88
2023-02-06T17:07:55.631Z,7.45
2023-02-06T17:10:24.037Z,7.28
2023-02-06T17:12:51.248Z,7.45
2023-02-06T17:15:18.965Z,9.88
2023-02-06T17:17:46.293Z,8.38
2023-02-06T17:20:25.557Z,9.20
2023-02-06T17:22:52.746Z,9.50
2023-02-06T17:25:19.904Z,6.85
2023-02-06T17:27:47.356Z,8.40
2023-02-06T17:30:18.054Z,7.32
2023-02-06T17:32:45.294Z,8.30
2023-02-06T17:35:12.686Z,7.30
2023-02-06T17:37:39.921Z,5.65
2023-02-06T17:40:07.419Z,9.05
2023-02-06T17:42:34.679Z,10.45
2023-02-06T17:45:01.858Z,8.60
2023-02-06T17:47:29.128Z,11.32
2023-02-06T17:49:56.381Z,11.30
2023-02-06T17:52:23.595Z,10.10
2023-02-06T17:54:51.153Z,10.23
2023-02-06T17:57:18.326Z,8.35
2023-02-06T17:59:45.557Z,8.88
2023-02-06T18:02:13.878Z,8.63
2023-02-06T18:04:41.331Z,8.80
2023-02-06T18:07:08.535Z,8.35
2023-02-06T18:09:35.699Z,7.55
2023-02-06T18:12:03.008Z,9.93
2023-02-06T18:14:30.187Z,8.25
2023-02-06T18:16:57.348Z,7.50
2023-02-06T18:19:25.290Z,7.90
2023-02-06T18:21:52.448Z,7.40
2023-02-06T18:24:19.576Z,8.77
2023-02-06T18:26:47.102Z,8.48
2023-02-06T18:29:14.458Z,9.17
2023-02-06T18:31:41.814Z,8.93
2023-02-06T18:34:09.287Z,9.45
2023-02-06T18:36:36.806Z,6.93
2023-02-06T18:39:04.627Z,7.90
2023-02-06T18:41:50.552Z,8.13
2023-02-06T18:44:18.510Z,12.02
2023-02-06T18:46:45.717Z,11.75
2023-02-06T18:49:12.946Z,15.45
2023-02-06T18:51:40.541Z,14.57
2023-02-06T18:54:10.547Z,14.05
2023-02-06T18:56:38.152Z,16.38
2023-02-06T18:59:05.385Z,18.38
2023-02-06T19:01:32.652Z,15.85
2023-02-06T19:03:59.903Z,16.60
2023-02-06T19:06:36.575Z,19.77
2023-02-06T19:09:07.028Z,22.00
2023-02-06T19:11:34.936Z,23.48
2023-02-06T19:14:02.530Z,28.30
2023-02-06T19:16:30.434Z,27.10
2023-02-06T19:18:57.737Z,22.35
2023-02-06T19:21:25.250Z,19.75
2023-02-06T19:23:56.288Z,20.92
2023-02-06T19:26:23.755Z,18.88
2023-02-06T19:28:52.761Z,22.70
2023-02-06T19:31:26.226Z,22.35
2023-02-06T19:33:58.780Z,18.02
2023-02-06T19:36:26.228Z,20.48
2023-02-06T19:38:58.426Z,15.35
2023-02-06T19:41:26.453Z,14.00
2023-02-06T19:43:54.038Z,12.05
2023-02-06T19:46:22.392Z,11.63
2023-02-06T19:48:49.853Z,12.07
2023-02-06T19:51:17.968Z,12.52
2023-02-06T19:53:45.838Z,10.07
2023-02-06T19:56:13.802Z,11.10
2023-02-06T19:58:41.673Z,11.13
2023-02-06T20:01:12.491Z,10.35
2023-02-06T20:03:39.808Z,12.32
2023-02-06T20:06:08.444Z,9.18
2023-02-06T20:08:35.632Z,11.45
2023-02-06T20:11:06.336Z,8.98
2023-02-06T20:13:33.674Z,10.02
2023-02-06T20:16:03.591Z,9.57
2023-02-06T20:18:37.042Z,11.48
2023-02-06T20:21:04.372Z,9.75
2023-02-06T20:23:34.969Z,10.93
2023-02-06T20:26:02.476Z,12.93
2023-02-06T20:28:30.005Z,10.98
2023-02-06T20:30:57.258Z,9.77
2023-02-06T20:33:24.528Z,10.45
2023-02-06T20:35:51.996Z,8.20
2023-02-06T20:38:19.230Z,8.48
2023-02-06T20:40:54.015Z,10.07
2023-02-06T20:43:21.239Z,10.93
2023-02-06T20:45:48.390Z,8.95
2023-02-06T20:48:15.605Z,9.73
2023-02-06T20:50:42.841Z,9.60
2023-02-06T20:53:09.986Z,9.47
2023-02-06T20:55:41.665Z,13.60
2023-02-06T20:58:08.879Z,9.38
2023-02-06T21:00:36.297Z,11.85
2023-02-06T21:03:03.800Z,11.00
2023-02-06T21:05:31.635Z,10.43
2023-02-06T21:07:59.930Z,11.95
2023-02-06T21:10:28.149Z,12.27
2023-02-06T21:12:55.657Z,12.52
2023-02-06T21:15:23.700Z,10.20
2023-02-06T21:17:51.344Z,13.68
2023-02-06T21:20:19.016Z,12.50
2023-02-06T21:22:46.270Z,12.82
2023-02-06T21:25:13.866Z,12.10
2023-02-06T21:27:41.312Z,13.40
2023-02-06T21:30:08.953Z,13.57
2023-02-06T21:32:36.142Z,13.30
2023-02-06T21:35:03.473Z,11.23
2023-02-06T21:37:30.775Z,12.93
2023-02-06T21:39:58.024Z,11.25
2023-02-06T21:42:27.439Z,10.27
2023-02-06T21:44:54.664Z,12.73
2023-02-06T21:47:21.929Z,11.98
2023-02-06T21:49:49.098Z,13.60
2023-02-06T21:52:16.305Z,12.27
2023-02-06T21:54:43.464Z,11.32
2023-02-06T21:57:11.424Z,12.82
2023-02-06T21:59:38.693Z,11.45
2023-02-06T22:02:05.842Z,11.93
2023-02-06T22:04:33.148Z,13.48
2023-02-06T22:07:01.324Z,14.25
2023-02-06T22:09:28.529Z,10.73
2023-02-06T22:11:55.864Z,10.73
2023-02-06T22:14:23.101Z,10.07
2023-02-06T22:16:52.617Z,11.93
2023-02-06T22:19:19.810Z,10.40
2023-02-06T22:21:47.069Z,13.63
2023-02-06T22:24:14.357Z,11.73
2023-02-06T22:26:41.632Z,12.77
2023-02-06T22:29:09.486Z,10.23
2023-02-06T22:31:37.033Z,13.02
2023-02-06T22:34:04.329Z,12.88
2023-02-06T22:36:32.158Z,12.93
2023-02-06T22:39:00.395Z,9.90
2023-02-06T22:41:27.599Z,9.98
2023-02-06T22:43:54.806Z,10.43
2023-02-06T22:46:32.308Z,11.65
2023-02-06T22:48:59.663Z,11.63
2023-02-06T22:51:27.069Z,14.13
2023-02-06T22:53:56.160Z,10.20
2023-02-06T22:56:27.343Z,9.65
2023-02-06T22:58:55.101Z,10.10
2023-02-06T23:01:22.987Z,10.05
2023-02-06T23:03:53.620Z,11.45
2023-02-06T23:06:21.419Z,11.32
2023-02-06T23:08:48.601Z,10.68
2023-02-06T23:11:15.775Z,10.35
2023-02-06T23:13:43.035Z,10.75
2023-02-06T23:16:10.424Z,14.25
2023-02-06T23:18:37.718Z,12.27
2023-02-06T23:21:06.025Z,12.77
2023-02-06T23:23:33.262Z,9.50
2023-02-06T23:26:00.483Z,11.25
2023-02-06T23:28:27.680Z,12.85
2023-02-06T23:30:55.001Z,11.40
2023-02-06T23:33:22.308Z,11.45
2023-02-06T23:35:49.555Z,13.57
2023-02-06T23:38:16.806Z,10.15
2023-02-06T23:40:43.998Z,10.63
2023-02-06T23:43:11.196Z,9.75
2023-02-06T23:45:38.698Z,12.40
2023-02-06T23:48:06.083Z,9.25
2023-02-06T23:50:33.278Z,11.48
2023-02-06T23:53:00.397Z,12.18
2023-02-06T23:55:28.426Z,11.15
2023-02-06T23:57:55.604Z,12.27
